Time,TemperatureF,DewpointF,PressureIn,WindDirection,WindDirectionDegrees,WindSpeedMPH,WindSpeedGustMPH,Humidity,HourlyPrecipIn,Conditions,Clouds,dailyrainin,SoftwareType,DateUTC
2013-08-29 00:00:00,62.3,54.6,29.85,East,90,0.0,1.0,76,0.00,,,0.00,WUHU216DAVISVP2,2013-08-29 07:00:00,
2013-08-29 00:15:00,62.2,54.9,29.85,North,0,0.0,0.0,77,0.00,,,0.00,WUHU216DAVISVP2,2013-08-29 07:15:00,
2013-08-29 00:30:00,61.4,54.5,29.85,North,0,0.0,0.0,78,0.00,,,0.00,WUHU216DAVISVP2,2013-08-29 07:30:00,
2013-08-29 00:45:00,60.8,54.6,29.85,North,0,0.0,0.0,80,0.00,,,0.00,WUHU216DAVISVP2,2013-08-29 07:45:00,
2013-08-29 01:00:00,61.2,54.3,29.85,WSW,248,0.0,1.0,78,0.00,,,0.00,WUHU216DAVISVP2,2013-08-29 08:00:00,
2013-08-29 01:15:00,61.1,54.2,29.84,North,0,0.0,0.0,78,0.00,,,0.00,WUHU216DAVISVP2,2013-08-29 08:15:00,
2013-08-29 01:30:00,61.3,55.1,29.84,WSW,248,0.0,1.0,80,0.00,,,0.00,WUHU216DAVISVP2,2013-08-29 08:30:00,
2013-08-29 01:45:00,60.9,54.3,29.84,North,0,0.0,0.0,79,0.00,,,0.00,WUHU216DAVISVP2,2013-08-29 08:45:00,
2013-08-29 01:48:00,61.6,54.8,29.85,SSE,153,0.0,1.0,78,0.00,,,0.00,WUHU216DAVISVP2,2013-08-29 08:48:00,
2013-08-29 01:49:00,61.4,54.6,29.85,SSE,153,0.0,1.0,78,0.00,,,0.00,WUHU216DAVISVP2,2013-08-29 08:49:00,
2013-08-29 01:54:00,60.8,54.3,29.85,SSE,153,0.0,1.0,79,0.00,,,0.00,WUHU216DAVISVP2,2013-08-29 08:54:00,
2013-08-29 01:59:00,61.1,54.3,29.85,SSE,153,0.0,1.0,78,0.00,,,0.00,WUHU216DAVISVP2,2013-08-29 08:59:00,
2013-08-29 02:00:00,61.2,54.3,29.83,North,0,0.0,0.0,78,0.00,,,0.00,WUHU216DAVISVP2,2013-08-29 09:00:00,
2013-08-29 02:04:00,61.1,54.3,29.84,SSE,153,0.0,1.0,78,0.00,,,0.00,WUHU216DAVISVP2,2013-08-29 09:04:00,
2013-08-29 02:09:00,61.3,54.5,29.84,WSW,240,0.1,1.0,78,0.00,,,0.00,WUHU216DAVISVP2,2013-08-29 09:09:00,
2013-08-29 02:14:00,61.4,54.9,29.84,SW,234,0.2,1.0,79,0.00,,,0.00,WUHU216DAVISVP2,2013-08-29 09:14:00,
2013-08-29 02:15:00,61.4,54.8,29.83,WSW,248,0.0,2.0,79,0.00,,,0.00,WUHU216DAVISVP2,2013-08-29 09:15:00,
2013-08-29 02:19:00,61.1,54.9,29.84,SW,221,0.0,1.0,80,0.00,,,0.00,WUHU216DAVISVP2,2013-08-29 09:19:00,
2013-08-29 02:24:00,60.7,54.6,29.84,SW,221,0.0,1.0,80,0.00,,,0.00,WUHU216DAVISVP2,2013-08-29 09:24:00,
2013-08-29 02:29:00,61.0,54.8,29.84,SW,221,0.0,1.0,80,0.00,,,0.00,WUHU216DAVISVP2,2013-08-29 09:29:00,
2013-08-29 02:30:00,61.0,54.8,29.83,SE,135,0.0,1.0,80,0.00,,,0.00,WUHU216DAVISVP2,2013-08-29 09:30:00,
2013-08-29 02:34:00,61.1,54.6,29.84,SW,221,0.0,0.0,79,0.00,,,0.00,WUHU216DAVISVP2,2013-08-29 09:34:00,
2013-08-29 02:39:00,61.2,54.7,29.84,South,180,0.0,0.0,79,0.00,,,0.00,WUHU216DAVISVP2,2013-08-29 09:39:00,
2013-08-29 02:44:00,61.2,54.6,29.84,SW,222,0.0,0.0,79,0.00,,,0.00,WUHU216DAVISVP2,2013-08-29 09:44:00,
2013-08-29 02:45:00,60.6,54.4,29.83,North,0,0.0,0.0,80,0.00,,,0.00,WUHU216DAVISVP2,2013-08-29 09:45:00,
2013-08-29 02:49:00,61.3,54.5,29.84,SW,222,0.0,0.0,78,0.00,,,0.00,WUHU216DAVISVP2,2013-08-29 09:49:00,
2013-08-29 02:54:00,61.4,54.6,29.84,SW,222,0.0,0.0,78,0.00,,,0.00,WUHU216DAVISVP2,2013-08-29 09:54:00,
2013-08-29 02:58:00,61.5,54.7,29.84,SW,216,0.3,2.0,78,0.00,,,0.00,WUHU216DAVISVP2,2013-08-29 09:58:00,
2013-08-29 03:00:00,60.2,54.3,29.83,North,0,0.0,0.0,81,0.00,,,0.00,WUHU216DAVISVP2,2013-08-29 10:00:00,
2013-08-29 03:03:00,61.3,54.4,29.83,SSW,202,0.0,2.0,78,0.00,,,0.00,WUHU216DAVISVP2,2013-08-29 10:03:00,
2013-08-29 03:09:00,61.0,54.5,29.83,SSW,210,0.0,2.0,79,0.00,,,0.00,WUHU216DAVISVP2,2013-08-29 10:09:00,
2013-08-29 03:14:00,60.8,54.3,29.83,SSW,210,0.0,2.0,79,0.00,,,0.00,WUHU216DAVISVP2,2013-08-29 10:14:00,
2013-08-29 03:15:00,59.7,54.2,29.83,North,0,0.0,0.0,82,0.00,,,0.00,WUHU216DAVISVP2,2013-08-29 10:15:00,
2013-08-29 03:19:00,60.8,54.6,29.83,SE,146,0.0,1.0,80,0.00,,,0.00,WUHU216DAVISVP2,2013-08-29 10:19:00,
2013-08-29 03:24:00,60.6,54.5,29.83,SE,146,0.0,1.0,80,0.00,,,0.00,WUHU216DAVISVP2,2013-08-29 10:24:00,
2013-08-29 03:29:00,60.4,54.3,29.83,SSW,210,0.0,1.0,80,0.00,,,0.00,WUHU216DAVISVP2,2013-08-29 10:29:00,
2013-08-29 03:30:00,59.7,54.2,29.83,North,0,0.0,0.0,82,0.00,,,0.00,WUHU216DAVISVP2,2013-08-29 10:30:00,
2013-08-29 03:34:00,60.4,54.3,29.83,SW,232,0.0,1.0,80,0.00,,,0.00,WUHU216DAVISVP2,2013-08-29 10:34:00,
2013-08-29 03:39:00,60.2,54.4,29.83,SW,229,0.0,0.0,81,0.00,,,0.00,WUHU216DAVISVP2,2013-08-29 10:39:00,
2013-08-29 03:44:00,60.1,54.2,29.83,SW,229,0.0,0.0,81,0.00,,,0.00,WUHU216DAVISVP2,2013-08-29 10:44:00,
2013-08-29 03:45:00,59.8,54.6,29.83,SE,135,0.0,1.0,83,0.00,,,0.00,WUHU216DAVISVP2,2013-08-29 10:45:00,
2013-08-29 03:48:00,60.1,54.2,29.83,SW,228,0.0,0.0,81,0.00,,,0.00,WUHU216DAVISVP2,2013-08-29 10:48:00,
2013-08-29 03:53:00,59.7,54.2,29.83,SW,227,0.0,0.0,82,0.00,,,0.00,WUHU216DAVISVP2,2013-08-29 10:53:00,
2013-08-29 03:58:00,59.6,54.5,29.83,SW,227,0.0,0.0,83,0.00,,,0.00,WUHU216DAVISVP2,2013-08-29 10:58:00,
2013-08-29 04:00:00,59.3,53.8,29.83,SSE,158,0.0,2.0,82,0.00,,,0.00,WUHU216DAVISVP2,2013-08-29 11:00:00,
2013-08-29 04:03:00,59.6,54.1,29.83,SSW,207,0.0,0.0,82,0.00,,,0.00,WUHU216DAVISVP2,2013-08-29 11:03:00,
2013-08-29 04:08:00,59.6,54.5,29.82,SSE,150,0.0,0.0,83,0.00,,,0.00,WUHU216DAVISVP2,2013-08-29 11:08:00,
2013-08-29 04:13:00,59.7,53.9,29.83,SW,217,0.0,0.0,81,0.00,,,0.00,WUHU216DAVISVP2,2013-08-29 11:13:00,
2013-08-29 04:15:00,59.4,54.2,29.83,SW,225,0.0,2.0,83,0.00,,,0.00,WUHU216DAVISVP2,2013-08-29 11:15:00,
2013-08-29 04:18:00,59.9,54.4,29.83,SSW,212,0.0,0.0,82,0.00,,,0.00,WUHU216DAVISVP2,2013-08-29 11:18:00,
2013-08-29 04:23:00,60.1,54.3,29.83,SW,214,0.0,0.0,81,0.00,,,0.00,WUHU216DAVISVP2,2013-08-29 11:23:00,
2013-08-29 04:28:00,59.7,54.2,29.83,SE,138,1.0,1.0,82,0.00,,,0.00,WUHU216DAVISVP2,2013-08-29 11:28:00,
2013-08-29 04:30:00,59.1,54.3,29.84,North,0,0.0,0.0,84,0.00,,,0.00,WUHU216DAVISVP2,2013-08-29 11:30:00,
2013-08-29 04:33:00,59.3,54.1,29.83,SE,138,0.0,1.0,83,0.00,,,0.00,WUHU216DAVISVP2,2013-08-29 11:33:00,
2013-08-29 04:38:00,59.3,54.1,29.83,SE,139,0.0,1.0,83,0.00,,,0.00,WUHU216DAVISVP2,2013-08-29 11:38:00,
2013-08-29 04:43:00,59.1,53.9,29.83,SSE,159,0.3,2.0,83,0.00,,,0.00,WUHU216DAVISVP2,2013-08-29 11:43:00,
2013-08-29 04:45:00,58.5,54.0,29.84,SSE,158,0.0,2.0,85,0.00,,,0.00,WUHU216DAVISVP2,2013-08-29 11:45:00,
2013-08-29 04:48:00,59.5,54.0,29.83,WSW,244,0.0,2.0,82,0.00,,,0.00,WUHU216DAVISVP2,2013-08-29 11:48:00,
2013-08-29 04:53:00,59.7,54.2,29.83,SW,229,0.0,2.0,82,0.00,,,0.00,WUHU216DAVISVP2,2013-08-29 11:53:00,
2013-08-29 04:58:00,59.2,54.0,29.83,SW,216,0.0,2.0,83,0.00,,,0.00,WUHU216DAVISVP2,2013-08-29 11:58:00,
2013-08-29 05:00:00,58.6,53.8,29.85,West,270,0.0,1.0,84,0.00,,,0.00,WUHU216DAVISVP2,2013-08-29 12:00:00,
2013-08-29 05:03:00,59.0,53.9,29.83,SW,215,0.1,2.0,83,0.00,,,0.00,WUHU216DAVISVP2,2013-08-29 12:03:00,
2013-08-29 05:08:00,59.1,54.0,29.84,WSW,240,0.0,2.0,83,0.00,,,0.00,WUHU216DAVISVP2,2013-08-29 12:08:00,
2013-08-29 05:13:00,59.2,54.1,29.84,WSW,242,0.0,2.0,83,0.00,,,0.00,WUHU216DAVISVP2,2013-08-29 12:13:00,
2013-08-29 05:15:00,59.1,54.3,29.85,North,0,0.0,0.0,84,0.00,,,0.00,WUHU216DAVISVP2,2013-08-29 12:15:00,
2013-08-29 05:18:00,58.8,54.0,29.84,SSW,209,0.0,2.0,84,0.00,,,0.00,WUHU216DAVISVP2,2013-08-29 12:18:00,
2013-08-29 05:23:00,58.5,53.7,29.84,WSW,252,0.0,0.0,84,0.00,,,0.00,WUHU216DAVISVP2,2013-08-29 12:23:00,
2013-08-29 05:28:00,58.3,53.8,29.84,SSE,147,1.0,1.0,85,0.00,,,0.00,WUHU216DAVISVP2,2013-08-29 12:28:00,
2013-08-29 05:30:00,58.8,54.0,29.85,North,0,0.0,0.0,84,0.00,,,0.00,WUHU216DAVISVP2,2013-08-29 12:30:00,
2013-08-29 05:33:00,58.4,53.9,29.84,WSW,240,0.0,2.0,85,0.00,,,0.00,WUHU216DAVISVP2,2013-08-29 12:33:00,
2013-08-29 05:38:00,58.6,53.8,29.84,SW,215,0.1,2.0,84,0.00,,,0.00,WUHU216DAVISVP2,2013-08-29 12:38:00,
2013-08-29 05:43:00,58.4,53.9,29.85,SSW,195,0.0,2.0,85,0.00,,,0.00,WUHU216DAVISVP2,2013-08-29 12:43:00,
2013-08-29 05:45:00,58.9,54.4,29.86,North,0,0.0,0.0,85,0.00,,,0.00,WUHU216DAVISVP2,2013-08-29 12:45:00,
2013-08-29 05:48:00,59.0,54.2,29.85,SW,223,0.0,1.0,84,0.00,,,0.00,WUHU216DAVISVP2,2013-08-29 12:48:00,
2013-08-29 05:53:00,59.3,54.2,29.85,SW,221,0.0,1.0,83,0.00,,,0.00,WUHU216DAVISVP2,2013-08-29 12:53:00,
2013-08-29 05:58:00,59.0,54.2,29.85,SSW,210,0.0,1.0,84,0.00,,,0.00,WUHU216DAVISVP2,2013-08-29 12:58:00,
2013-08-29 06:00:00,58.8,54.0,29.87,North,0,0.0,0.0,84,0.00,,,0.00,WUHU216DAVISVP2,2013-08-29 13:00:00,
2013-08-29 06:15:00,59.2,54.4,29.87,North,0,0.0,0.0,84,0.00,,,0.00,WUHU216DAVISVP2,2013-08-29 13:15:00,
2013-08-29 06:30:00,60.0,55.2,29.87,North,0,0.0,0.0,84,0.00,,,0.00,WUHU216DAVISVP2,2013-08-29 13:30:00,
2013-08-29 06:45:00,60.4,55.2,29.88,North,0,0.0,0.0,83,0.00,,,0.00,WUHU216DAVISVP2,2013-08-29 13:45:00,
2013-08-29 07:00:00,60.8,55.6,29.89,North,0,0.0,0.0,83,0.00,,,0.00,WUHU216DAVISVP2,2013-08-29 14:00:00,
2013-08-29 07:15:00,60.9,55.7,29.89,North,0,0.0,0.0,83,0.00,,,0.00,WUHU216DAVISVP2,2013-08-29 14:15:00,
2013-08-29 07:30:00,63.3,55.6,29.89,North,0,0.0,2.0,76,0.00,,,0.00,WUHU216DAVISVP2,2013-08-29 14:30:00,
2013-08-29 07:45:00,65.6,56.7,29.89,NE,45,1.0,3.0,73,0.00,,,0.00,WUHU216DAVISVP2,2013-08-29 14:45:00,
2013-08-29 08:00:00,66.5,57.6,29.90,NE,45,1.0,4.0,73,0.00,,,0.00,WUHU216DAVISVP2,2013-08-29 15:00:00,
2013-08-29 08:15:00,66.4,57.5,29.91,North,0,1.0,3.0,73,0.00,,,0.00,WUHU216DAVISVP2,2013-08-29 15:15:00,
2013-08-29 08:30:00,66.4,58.2,29.91,NNE,23,0.0,2.0,75,0.00,,,0.00,WUHU216DAVISVP2,2013-08-29 15:30:00,
2013-08-29 08:45:00,67.4,57.7,29.91,North,0,1.0,5.0,71,0.00,,,0.00,WUHU216DAVISVP2,2013-08-29 15:45:00,
2013-08-29 09:00:00,69.3,57.5,29.91,NNE,23,2.0,7.0,66,0.00,,,0.00,WUHU216DAVISVP2,2013-08-29 16:00:00,
2013-08-29 09:15:00,70.9,59.0,29.91,North,0,2.0,5.0,66,0.00,,,0.00,WUHU216DAVISVP2,2013-08-29 16:15:00,
2013-08-29 09:30:00,71.7,59.3,29.91,North,0,2.0,6.0,65,0.00,,,0.00,WUHU216DAVISVP2,2013-08-29 16:30:00,
2013-08-29 09:45:00,72.7,58.5,29.91,North,0,2.0,6.0,61,0.00,,,0.00,WUHU216DAVISVP2,2013-08-29 16:45:00,
2013-08-29 10:00:00,73.2,59.4,29.91,North,0,2.0,6.0,62,0.00,,,0.00,WUHU216DAVISVP2,2013-08-29 17:00:00,
2013-08-29 10:15:00,73.8,59.0,29.92,North,0,2.0,7.0,60,0.00,,,0.00,WUHU216DAVISVP2,2013-08-29 17:15:00,
2013-08-29 10:30:00,74.4,58.7,29.92,North,0,2.0,8.0,58,0.00,,,0.00,WUHU216DAVISVP2,2013-08-29 17:30:00,
2013-08-29 10:45:00,73.1,58.8,29.92,WNW,293,2.0,5.0,61,0.00,,,0.00,WUHU216DAVISVP2,2013-08-29 17:45:00,
2013-08-29 11:00:00,72.5,58.3,29.92,North,0,1.0,3.0,61,0.00,,,0.00,WUHU216DAVISVP2,2013-08-29 18:00:00,
2013-08-29 11:15:00,72.4,58.2,29.91,WNW,293,1.0,3.0,61,0.00,,,0.00,WUHU216DAVISVP2,2013-08-29 18:15:00,
2013-08-29 11:30:00,73.2,58.0,29.91,West,270,0.0,2.0,59,0.00,,,0.00,WUHU216DAVISVP2,2013-08-29 18:30:00,
2013-08-29 11:45:00,73.7,58.5,29.91,West,270,0.0,2.0,59,0.00,,,0.00,WUHU216DAVISVP2,2013-08-29 18:45:00,
2013-08-29 12:00:00,74.9,57.1,29.91,WSW,248,0.0,2.0,54,0.00,,,0.00,WUHU216DAVISVP2,2013-08-29 19:00:00,
2013-08-29 12:15:00,76.4,57.5,29.91,North,0,1.0,5.0,52,0.00,,,0.00,WUHU216DAVISVP2,2013-08-29 19:15:00,
2013-08-29 12:30:00,77.0,58.0,29.90,North,0,1.0,5.0,52,0.00,,,0.00,WUHU216DAVISVP2,2013-08-29 19:30:00,
2013-08-29 12:45:00,78.1,57.4,29.91,WNW,293,1.0,5.0,49,0.00,,,0.00,WUHU216DAVISVP2,2013-08-29 19:45:00,
2013-08-29 13:00:00,79.0,56.5,29.91,WNW,293,1.0,4.0,46,0.00,,,0.00,WUHU216DAVISVP2,2013-08-29 20:00:00,
2013-08-29 13:15:00,79.2,57.2,29.91,North,0,2.0,8.0,47,0.00,,,0.00,WUHU216DAVISVP2,2013-08-29 20:15:00,
2013-08-29 13:30:00,79.2,56.0,29.91,North,0,2.0,6.0,45,0.00,,,0.00,WUHU216DAVISVP2,2013-08-29 20:30:00,
2013-08-29 13:45:00,80.2,56.3,29.91,North,0,1.0,4.0,44,0.00,,,0.00,WUHU216DAVISVP2,2013-08-29 20:45:00,
2013-08-29 14:00:00,81.7,56.4,29.91,North,0,3.0,9.0,42,0.00,,,0.00,WUHU216DAVISVP2,2013-08-29 21:00:00,
2013-08-29 14:15:00,82.6,56.5,29.91,North,0,3.0,9.0,41,0.00,,,0.00,WUHU216DAVISVP2,2013-08-29 21:15:00,
2013-08-29 14:30:00,82.9,55.4,29.91,WNW,293,3.0,8.0,39,0.00,,,0.00,WUHU216DAVISVP2,2013-08-29 21:30:00,
2013-08-29 14:45:00,83.8,56.2,29.90,North,0,3.0,8.0,39,0.00,,,0.00,WUHU216DAVISVP2,2013-08-29 21:45:00,
2013-08-29 14:55:00,83.1,56.9,29.91,NNW,330,3.0,9.0,41,0.00,,,0.00,WUHU216DAVISVP2,2013-08-29 21:55:00,
2013-08-29 15:00:00,82.7,56.6,29.91,NNW,329,3.7,9.0,41,0.00,,,0.00,WUHU216DAVISVP2,2013-08-29 22:00:00,
2013-08-29 15:05:00,82.4,56.3,29.91,North,356,3.0,9.0,41,0.00,,,0.00,WUHU216DAVISVP2,2013-08-29 22:05:00,
2013-08-29 15:10:00,82.7,56.6,29.91,NW,320,2.1,9.0,41,0.00,,,0.00,WUHU216DAVISVP2,2013-08-29 22:10:00,
2013-08-29 15:15:00,83.6,56.7,29.91,NNE,25,4.0,9.0,40,0.00,,,0.00,WUHU216DAVISVP2,2013-08-29 22:15:00,
2013-08-29 15:20:00,83.6,56.0,29.91,North,354,7.0,8.0,39,0.00,,,0.00,WUHU216DAVISVP2,2013-08-29 22:20:00,
2013-08-29 15:25:00,83.9,57.0,29.90,NNW,345,2.0,8.0,40,0.00,,,0.00,WUHU216DAVISVP2,2013-08-29 22:25:00,
2013-08-29 15:30:00,84.0,56.3,29.90,NNE,25,3.0,8.0,39,0.00,,,0.00,WUHU216DAVISVP2,2013-08-29 22:30:00,
2013-08-29 15:35:00,83.0,56.1,29.90,WNW,288,3.0,8.0,40,0.00,,,0.00,WUHU216DAVISVP2,2013-08-29 22:35:00,
2013-08-29 15:40:00,82.6,55.8,29.90,North,1,3.0,8.0,40,0.00,,,0.00,WUHU216DAVISVP2,2013-08-29 22:40:00,
2013-08-29 18:07:00,76.3,59.1,29.93,WNW,300,3.0,7.0,55,0.00,,,0.00,WUHU216DAVISVP2,2013-08-30 01:07:00,
2013-08-29 18:12:00,76.0,59.3,29.94,WNW,287,2.4,7.0,56,0.00,,,0.00,WUHU216DAVISVP2,2013-08-30 01:12:00,
2013-08-29 18:17:00,75.8,59.2,29.93,WNW,288,2.5,7.0,56,0.00,,,0.00,WUHU216DAVISVP2,2013-08-30 01:17:00,
2013-08-29 18:31:00,74.7,59.1,29.94,West,268,1.0,11.0,58,0.00,,,0.00,WUHU216DAVISVP2,2013-08-30 01:31:00,
2013-08-29 18:36:00,74.3,58.8,29.94,WNW,295,1.8,11.0,58,0.00,,,0.00,WUHU216DAVISVP2,2013-08-30 01:36:00,
2013-08-29 18:41:00,73.9,58.7,29.94,WNW,297,3.0,11.0,59,0.00,,,0.00,WUHU216DAVISVP2,2013-08-30 01:41:00,
2013-08-29 18:46:00,73.7,59.1,29.94,West,268,1.4,10.0,60,0.00,,,0.00,WUHU216DAVISVP2,2013-08-30 01:46:00,
2013-08-29 18:51:00,73.5,58.5,29.94,West,281,4.1,9.0,59,0.00,,,0.00,WUHU216DAVISVP2,2013-08-30 01:51:00,
2013-08-29 18:56:00,73.3,58.8,29.94,WNW,282,2.3,9.0,60,0.00,,,0.00,WUHU216DAVISVP2,2013-08-30 01:56:00,
2013-08-29 19:01:00,73.1,58.6,29.95,West,262,3.0,9.0,60,0.00,,,0.00,WUHU216DAVISVP2,2013-08-30 02:01:00,
2013-08-29 19:06:00,72.8,58.1,29.95,West,276,2.0,9.0,60,0.00,,,0.00,WUHU216DAVISVP2,2013-08-30 02:06:00,
2013-08-29 19:11:00,72.6,58.4,29.95,WSW,255,5.0,8.0,61,0.00,,,0.00,WUHU216DAVISVP2,2013-08-30 02:11:00,
2013-08-29 19:16:00,72.3,58.1,29.95,West,260,3.0,8.0,61,0.00,,,0.00,WUHU216DAVISVP2,2013-08-30 02:16:00,
2013-08-29 19:21:00,72.1,58.6,29.95,West,270,2.4,8.0,62,0.00,,,0.00,WUHU216DAVISVP2,2013-08-30 02:21:00,
2013-08-29 19:26:00,71.9,58.4,29.95,West,272,2.9,8.0,62,0.00,,,0.00,WUHU216DAVISVP2,2013-08-30 02:26:00,
2013-08-29 19:31:00,71.8,58.3,29.96,WSW,258,1.5,6.0,62,0.00,,,0.00,WUHU216DAVISVP2,2013-08-30 02:31:00,
2013-08-29 19:36:00,71.4,58.3,29.96,WNW,287,4.0,6.0,63,0.00,,,0.00,WUHU216DAVISVP2,2013-08-30 02:36:00,
2013-08-29 19:41:00,71.2,58.2,29.96,West,269,2.0,7.0,63,0.00,,,0.00,WUHU216DAVISVP2,2013-08-30 02:41:00,
2013-08-29 19:46:00,70.9,58.3,29.96,WNW,283,2.4,7.0,64,0.00,,,0.00,WUHU216DAVISVP2,2013-08-30 02:46:00,
2013-08-29 19:51:00,70.6,58.0,29.96,West,273,3.0,7.0,64,0.00,,,0.00,WUHU216DAVISVP2,2013-08-30 02:51:00,
2013-08-29 19:56:00,70.5,57.7,29.96,WNW,286,1.8,6.0,64,0.00,,,0.00,WUHU216DAVISVP2,2013-08-30 02:56:00,
2013-08-29 20:01:00,70.3,57.5,29.96,West,281,1.3,6.0,64,0.00,,,0.00,WUHU216DAVISVP2,2013-08-30 03:01:00,
2013-08-29 20:06:00,70.2,57.9,29.97,WSW,244,5.0,6.0,65,0.00,,,0.00,WUHU216DAVISVP2,2013-08-30 03:06:00,
2013-08-29 20:11:00,70.0,57.9,29.97,WNW,287,2.2,6.0,65,0.00,,,0.00,WUHU216DAVISVP2,2013-08-30 03:11:00,
2013-08-29 20:16:00,69.8,57.7,29.97,West,271,2.1,6.0,65,0.00,,,0.00,WUHU216DAVISVP2,2013-08-30 03:16:00,
2013-08-29 20:21:00,69.6,57.9,29.98,WSW,244,4.0,6.0,66,0.00,,,0.00,WUHU216DAVISVP2,2013-08-30 03:21:00,
2013-08-29 20:26:00,69.6,57.9,29.98,WSW,246,3.0,6.0,66,0.00,,,0.00,WUHU216DAVISVP2,2013-08-30 03:26:00,
2013-08-29 20:31:00,69.4,57.7,29.98,West,279,1.9,7.0,66,0.00,,,0.00,WUHU216DAVISVP2,2013-08-30 03:31:00,
2013-08-29 20:36:00,69.2,57.5,29.98,West,272,3.0,7.0,66,0.00,,,0.00,WUHU216DAVISVP2,2013-08-30 03:36:00,
2013-08-29 20:41:00,69.0,57.8,29.98,West,275,2.3,8.0,67,0.00,,,0.00,WUHU216DAVISVP2,2013-08-30 03:41:00,
2013-08-29 20:46:00,68.8,57.4,29.99,West,276,2.5,9.0,67,0.00,,,0.00,WUHU216DAVISVP2,2013-08-30 03:46:00,
2013-08-29 20:51:00,68.6,57.4,29.99,WSW,239,4.0,9.0,67,0.00,,,0.00,WUHU216DAVISVP2,2013-08-30 03:51:00,
2013-08-29 20:56:00,68.5,57.7,29.99,West,278,3.0,9.0,68,0.00,,,0.00,WUHU216DAVISVP2,2013-08-30 03:56:00,
2013-08-29 21:01:00,68.3,57.5,29.99,WNW,287,1.3,9.0,68,0.00,,,0.00,WUHU216DAVISVP2,2013-08-30 04:01:00,
2013-08-29 21:02:00,68.3,57.5,29.99,West,264,2.0,9.0,68,0.00,,,0.00,WUHU216DAVISVP2,2013-08-30 04:02:00,
2013-08-29 21:07:00,68.1,57.5,30.00,WNW,286,2.0,8.0,69,0.00,,,0.00,WUHU216DAVISVP2,2013-08-30 04:07:00,
2013-08-29 21:12:00,67.9,57.5,30.00,West,279,2.3,7.0,69,0.00,,,0.00,WUHU216DAVISVP2,2013-08-30 04:12:00,
2013-08-29 21:17:00,67.8,57.8,30.00,SW,236,2.0,7.0,70,0.00,,,0.00,WUHU216DAVISVP2,2013-08-30 04:17:00,
2013-08-29 21:22:00,67.6,57.5,30.00,West,279,1.7,7.0,70,0.00,,,0.00,WUHU216DAVISVP2,2013-08-30 04:22:00,
2013-08-29 21:27:00,67.5,57.9,30.00,WNW,289,2.0,7.0,71,0.00,,,0.00,WUHU216DAVISVP2,2013-08-30 04:27:00,
2013-08-29 21:32:00,67.2,57.6,30.00,WNW,286,1.3,5.0,71,0.00,,,0.00,WUHU216DAVISVP2,2013-08-30 04:32:00,
2013-08-29 21:37:00,67.0,57.4,30.00,West,270,0.7,5.0,71,0.00,,,0.00,WUHU216DAVISVP2,2013-08-30 04:37:00,
2013-08-29 21:42:00,66.8,57.6,30.01,West,261,0.5,5.0,72,0.00,,,0.00,WUHU216DAVISVP2,2013-08-30 04:42:00,
2013-08-29 21:47:00,66.5,57.3,30.01,West,274,0.1,4.0,72,0.00,,,0.00,WUHU216DAVISVP2,2013-08-30 04:47:00,
2013-08-29 21:52:00,66.2,57.4,30.01,West,271,0.8,4.0,73,0.00,,,0.00,WUHU216DAVISVP2,2013-08-30 04:52:00,
2013-08-29 21:57:00,66.2,57.4,30.01,West,274,1.0,3.0,73,0.00,,,0.00,WUHU216DAVISVP2,2013-08-30 04:57:00,
2013-08-29 22:02:00,66.1,57.3,30.01,West,278,1.0,3.0,73,0.00,,,0.00,WUHU216DAVISVP2,2013-08-30 05:02:00,
2013-08-29 22:07:00,66.0,57.6,30.01,West,268,0.4,3.0,74,0.00,,,0.00,WUHU216DAVISVP2,2013-08-30 05:07:00,
2013-08-29 22:12:00,65.9,57.4,30.01,WSW,245,0.3,3.0,74,0.00,,,0.00,WUHU216DAVISVP2,2013-08-30 05:12:00,
2013-08-29 22:17:00,65.6,57.2,30.01,WNW,295,0.0,3.0,74,0.00,,,0.00,WUHU216DAVISVP2,2013-08-30 05:17:00,
2013-08-29 22:22:00,65.2,57.2,30.01,WSW,250,2.0,3.0,75,0.00,,,0.00,WUHU216DAVISVP2,2013-08-30 05:22:00,
2013-08-29 22:27:00,65.0,57.4,30.01,West,277,1.4,5.0,76,0.00,,,0.00,WUHU216DAVISVP2,2013-08-30 05:27:00,
2013-08-29 22:32:00,65.0,57.4,30.01,WSW,255,2.0,5.0,76,0.00,,,0.00,WUHU216DAVISVP2,2013-08-30 05:32:00,
2013-08-29 22:46:00,65.4,57.4,30.02,WSW,254,2.0,7.0,75,0.00,,,0.00,WUHU216DAVISVP2,2013-08-30 05:46:00,
2013-08-29 22:51:00,65.4,57.3,30.02,West,279,0.8,7.0,75,0.00,,SCT/// 10SM,0.00,WUHU216DAVISVP2,2013-08-30 05:51:00,
2013-08-29 22:56:00,65.4,57.4,30.02,West,281,1.0,7.0,75,0.00,,SCT/// 10SM,0.00,WUHU216DAVISVP2,2013-08-30 05:56:00,
2013-08-29 23:01:00,65.4,57.7,30.03,WNW,290,1.0,6.0,76,0.00,,SCT/// 10SM,0.00,WUHU216DAVISVP2,2013-08-30 06:01:00,
2013-08-29 23:06:00,65.3,57.7,30.03,West,272,2.0,6.0,76,0.00,,SCT/// 10SM,0.00,WUHU216DAVISVP2,2013-08-30 06:06:00,
2013-08-29 23:11:00,65.4,57.7,30.03,West,262,2.2,8.0,76,0.00,,SCT/// 10SM,0.00,WUHU216DAVISVP2,2013-08-30 06:11:00,
2013-08-29 23:16:00,65.4,57.7,30.03,West,259,2.1,8.0,76,0.00,,SCT/// 10SM,0.00,WUHU216DAVISVP2,2013-08-30 06:16:00,
2013-08-29 23:21:00,65.2,57.6,30.03,West,263,2.0,8.0,76,0.00,,SCT/// 10SM,0.00,WUHU216DAVISVP2,2013-08-30 06:21:00,
2013-08-29 23:26:00,65.0,57.4,30.03,West,260,1.4,7.0,76,0.00,,SCT/// 10SM,0.00,WUHU216DAVISVP2,2013-08-30 06:26:00,
2013-08-29 23:31:00,64.9,57.6,30.03,West,271,4.0,6.0,77,0.00,,SCT/// 10SM,0.00,WUHU216DAVISVP2,2013-08-30 06:31:00,
2013-08-29 23:36:00,64.8,57.5,30.03,WNW,294,2.0,5.0,77,0.00,,SCT/// 10SM,0.00,WUHU216DAVISVP2,2013-08-30 06:36:00,
2013-08-29 23:41:00,64.6,57.3,30.03,West,259,4.0,5.0,77,0.00,,SCT/// 10SM,0.00,WUHU216DAVISVP2,2013-08-30 06:41:00,
2013-08-29 23:46:00,64.4,57.5,30.03,WNW,290,2.0,5.0,78,0.00,,SCT/// 10SM,0.00,WUHU216DAVISVP2,2013-08-30 06:46:00,
2013-08-29 23:51:00,64.3,57.4,30.03,WNW,282,1.4,4.0,78,0.00,,SCT/// 10SM,0.00,WUHU216DAVISVP2,2013-08-30 06:51:00,
2013-08-29 23:56:00,64.2,57.3,30.03,WNW,297,1.0,4.0,78,0.00,,SCT/// 10SM,0.00,WUHU216DAVISVP2,2013-08-30 06:56:00,